Time;durP1;ratioP1;P1;durP2;ratioP2;P2;SDS_P1;SDS_P2;PMS_P1;PMS_P2;Temp;Humidity;BMP_temperature;BMP_pressure;BME280_temperature;BME280_humidity;BME280_pressure;Samples;Min_cycle;Max_cycle;Signal;HPM_P1;HPM_P2
2022/11/08 06:01:29;;;;;;;14.02;7.72;;;5.10;99.90;;;;;;5948888;23;20025;-75
2022/11/08 06:03:55;;;;;;;15.02;8.35;;;5.10;99.90;;;;;;5004188;28;20038;-74
2022/11/08 06:06:21;;;;;;;15.13;8.65;;;5.00;99.90;;;;;;5004945;28;20130;-73
2022/11/08 06:08:48;;;;;;;19.10;11.30;;;5.10;99.90;;;;;;5004504;28;20453;-74
2022/11/08 06:11:23;;;;;;;24.77;17.27;;;5.10;99.90;;;;;;5005141;28;20078;-74
2022/11/08 06:13:49;;;;;;;17.35;9.48;;;5.20;99.90;;;;;;5004739;28;20096;-75
2022/11/08 06:16:19;;;;;;;13.85;8.55;;;5.20;99.90;;;;;;5004748;28;20056;-74
2022/11/08 06:18:45;;;;;;;14.40;8.38;;;5.20;99.90;;;;;;4997259;28;20089;-73
2022/11/08 06:21:14;;;;;;;14.50;8.55;;;5.20;99.90;;;;;;4968771;28;20121;-73
2022/11/08 06:23:40;;;;;;;18.17;9.40;;;5.20;99.90;;;;;;5002768;28;20031;-74
2022/11/08 06:26:05;;;;;;;12.45;8.43;;;5.30;99.90;;;;;;5005670;28;20090;-75
2022/11/08 06:28:31;;;;;;;18.55;10.10;;;5.30;99.90;;;;;;5004455;28;20034;-73
2022/11/08 06:30:58;;;;;;;56.78;35.47;;;5.30;99.90;;;;;;5004505;28;20350;-74
2022/11/08 06:33:24;;;;;;;18.75;12.07;;;5.20;99.90;;;;;;5004736;28;20054;-76
2022/11/08 06:35:50;;;;;;;28.42;18.48;;;5.30;99.90;;;;;;4996801;28;20035;-74
2022/11/08 06:38:16;;;;;;;14.98;9.73;;;5.30;99.90;;;;;;4985140;28;20035;-74
2022/11/08 06:40:42;;;;;;;15.07;9.07;;;5.30;99.90;;;;;;4984907;28;20019;-75
2022/11/08 06:43:11;;;;;;;13.15;8.15;;;5.30;99.90;;;;;;4992379;28;20049;-73
2022/11/08 06:45:37;;;;;;;14.95;8.60;;;5.30;99.90;;;;;;5003321;28;20023;-74
2022/11/08 06:48:05;;;;;;;15.10;8.70;;;5.30;99.90;;;;;;5004282;28;20323;-76
2022/11/08 06:50:32;;;;;;;16.53;8.20;;;5.40;99.90;;;;;;5003986;28;20041;-76
2022/11/08 06:53:00;;;;;;;15.70;8.00;;;5.40;99.90;;;;;;5003095;28;20038;-74
2022/11/08 06:55:25;;;;;;;19.95;8.88;;;5.40;99.90;;;;;;5004204;28;20035;-75
2022/11/08 06:57:58;;;;;;;15.60;8.82;;;5.50;99.90;;;;;;5004257;28;20033;-73
2022/11/08 07:00:24;;;;;;;12.52;8.77;;;5.50;99.90;;;;;;4986622;28;20081;-72
2022/11/08 07:02:58;;;;;;;14.13;7.88;;;5.60;99.90;;;;;;4993278;28;20691;-73
2022/11/08 07:05:49;;;;;;;17.17;8.30;;;5.60;99.90;;;;;;4984744;28;20030;-74
2022/11/08 07:08:14;;;;;;;14.10;8.07;;;5.70;99.90;;;;;;4974634;28;20140;-72
2022/11/08 07:10:40;;;;;;;12.80;7.55;;;5.70;99.90;;;;;;4973747;28;20289;-75
2022/11/08 07:13:13;;;;;;;12.38;7.72;;;5.70;99.90;;;;;;4961784;28;20038;-75
2022/11/08 07:15:41;;;;;;;11.00;7.03;;;5.80;99.90;;;;;;4963083;28;20027;-74
2022/11/08 07:18:10;;;;;;;12.75;7.15;;;5.90;99.90;;;;;;4964230;28;20111;-76
2022/11/08 07:20:37;;;;;;;12.95;7.20;;;6.00;99.90;;;;;;4982653;28;20039;-75
2022/11/08 07:23:03;;;;;;;14.27;7.45;;;6.10;99.90;;;;;;4998003;28;20026;-74
2022/11/08 07:25:29;;;;;;;11.38;7.05;;;6.20;99.90;;;;;;4982997;28;20030;-74
2022/11/08 07:28:03;;;;;;;9.95;6.32;;;6.30;99.90;;;;;;4981935;28;20067;-75
2022/11/08 07:30:29;;;;;;;13.60;7.10;;;6.40;99.90;;;;;;4982553;28;20100;-75
2022/11/08 07:32:56;;;;;;;12.93;6.50;;;6.50;99.90;;;;;;4981252;28;20039;-74
2022/11/08 07:35:23;;;;;;;12.82;6.18;;;6.60;99.90;;;;;;4980546;28;20043;-75
2022/11/08 07:37:49;;;;;;;12.88;7.07;;;6.70;99.90;;;;;;4963088;28;20027;-74
2022/11/08 07:40:15;;;;;;;10.45;6.00;;;6.70;99.90;;;;;;4970723;28;20053;-72
2022/11/08 07:42:41;;;;;;;11.02;5.95;;;6.70;99.90;;;;;;4982455;28;20038;-75
2022/11/08 07:45:09;;;;;;;11.25;6.13;;;6.70;99.90;;;;;;4981480;28;20027;-74
2022/11/08 07:47:35;;;;;;;9.60;6.28;;;6.70;99.90;;;;;;4982266;28;20044;-74
2022/11/08 07:50:02;;;;;;;12.45;6.57;;;6.60;99.90;;;;;;4982330;28;20031;-73
2022/11/08 07:52:27;;;;;;;11.57;7.05;;;6.60;99.90;;;;;;4982339;28;20049;-74
2022/11/08 07:54:53;;;;;;;13.32;6.75;;;6.60;99.90;;;;;;4982661;28;20031;-73
2022/11/08 07:57:19;;;;;;;10.73;6.20;;;6.60;99.90;;;;;;4982836;28;20030;-71
2022/11/08 07:59:45;;;;;;;13.20;6.78;;;6.60;99.90;;;;;;4980546;28;20033;-72
2022/11/08 08:02:17;;;;;;;15.55;6.68;;;6.60;99.90;;;;;;4986400;28;20067;-75
2022/11/08 08:04:42;;;;;;;11.55;6.93;;;6.80;99.90;;;;;;5000588;28;20066;-73
2022/11/08 08:07:11;;;;;;;9.52;6.10;;;6.90;99.90;;;;;;4980505;28;20037;-74
2022/11/08 08:09:37;;;;;;;12.00;6.70;;;7.00;99.90;;;;;;5000703;28;20034;-74
2022/11/08 08:12:03;;;;;;;10.45;6.13;;;7.10;99.90;;;;;;5001605;28;20042;-73
2022/11/08 08:14:29;;;;;;;14.63;6.30;;;7.30;99.90;;;;;;5001907;28;20215;-75
2022/11/08 08:16:56;;;;;;;9.90;5.60;;;7.60;99.90;;;;;;5001196;28;20196;-75
2022/11/08 08:19:21;;;;;;;9.45;5.55;;;7.90;99.90;;;;;;5001438;28;20056;-72
2022/11/08 08:21:47;;;;;;;11.77;5.55;;;8.20;99.90;;;;;;4983707;28;20312;-73
2022/11/08 08:24:13;;;;;;;11.93;5.32;;;8.40;99.90;;;;;;5000913;28;20034;-74
2022/11/08 08:26:39;;;;;;;11.85;4.63;;;8.50;99.90;;;;;;4999862;28;20057;-73
2022/11/08 08:29:04;;;;;;;9.00;4.55;;;8.80;99.90;;;;;;5001637;28;20315;-73
2022/11/08 08:31:30;;;;;;;7.63;4.50;;;9.10;99.90;;;;;;5001375;28;20204;-73
2022/11/08 08:33:56;;;;;;;6.63;3.95;;;9.40;99.90;;;;;;4997075;28;20058;-75
2022/11/08 08:36:21;;;;;;;8.00;5.10;;;9.70;99.90;;;;;;5001220;28;20268;-72
2022/11/08 08:38:47;;;;;;;12.30;5.22;;;10.00;99.90;;;;;;5000797;28;20106;-75
2022/11/08 08:41:13;;;;;;;7.60;4.35;;;10.10;99.90;;;;;;4999763;28;20033;-74
2022/11/08 08:43:41;;;;;;;10.52;4.47;;;10.20;99.90;;;;;;4999617;28;20216;-73
2022/11/08 08:46:07;;;;;;;10.88;4.00;;;10.30;99.90;;;;;;5001378;28;20026;-73
2022/11/08 08:48:34;;;;;;;9.85;3.83;;;10.50;99.90;;;;;;5001061;28;20085;-74
2022/11/08 08:51:00;;;;;;;8.57;4.13;;;10.60;99.90;;;;;;5001206;28;20327;-75
2022/11/08 08:53:29;;;;;;;8.73;4.60;;;10.80;99.90;;;;;;5001325;28;20062;-74
2022/11/08 08:55:55;;;;;;;9.77;4.22;;;10.80;99.90;;;;;;4983361;28;20251;-74
2022/11/08 08:58:21;;;;;;;9.90;4.70;;;10.80;99.90;;;;;;5001092;28;20018;-72
2022/11/08 09:00:47;;;;;;;10.02;5.38;;;10.80;99.90;;;;;;5000745;28;20053;-72
2022/11/08 09:03:13;;;;;;;11.02;5.72;;;10.80;99.90;;;;;;4983288;28;20105;-72
2022/11/08 09:05:42;;;;;;;13.48;6.78;;;10.80;99.90;;;;;;5000667;28;20161;-75
2022/11/08 09:08:09;;;;;;;8.18;5.55;;;10.90;99.90;;;;;;5000587;28;20026;-72
2022/11/08 09:10:35;;;;;;;15.15;6.35;;;10.90;99.90;;;;;;5000010;28;20058;-72
2022/11/08 09:13:02;;;;;;;15.02;5.78;;;10.90;99.90;;;;;;5000615;28;20074;-71
2022/11/08 09:15:28;;;;;;;13.70;6.72;;;10.80;99.90;;;;;;5000779;28;20034;-72
2022/11/08 09:17:54;;;;;;;13.90;6.45;;;10.80;99.90;;;;;;4998822;28;20041;-73
2022/11/08 09:20:20;;;;;;;12.63;5.68;;;10.80;99.90;;;;;;5000542;28;20126;-74
2022/11/08 09:22:46;;;;;;;8.82;5.18;;;10.90;99.90;;;;;;5000633;28;20482;-72
2022/11/08 09:25:12;;;;;;;9.07;4.60;;;11.10;99.90;;;;;;4981445;28;20033;-74
2022/11/08 09:27:38;;;;;;;9.65;5.40;;;11.30;99.90;;;;;;4979852;28;20015;-73
2022/11/08 09:30:04;;;;;;;6.95;4.55;;;11.40;99.90;;;;;;4981058;28;20073;-73
2022/11/08 09:32:30;;;;;;;12.05;5.00;;;11.50;99.90;;;;;;4981055;28;20292;-74
2022/11/08 09:34:56;;;;;;;8.13;4.25;;;11.50;99.90;;;;;;4983359;28;20057;-72
2022/11/08 09:37:23;;;;;;;6.03;3.92;;;11.60;99.90;;;;;;5003977;28;20036;-73
2022/11/08 09:39:49;;;;;;;9.10;3.85;;;11.60;99.90;;;;;;5004218;28;20041;-74
2022/11/08 09:42:33;;;;;;;8.02;3.85;;;11.70;99.90;;;;;;5004010;28;20084;-74
2022/11/08 09:45:42;;;;;;;8.90;4.05;;;11.80;99.90;;;;;;5003666;28;20027;-72
2022/11/08 09:48:21;;;;;;;13.18;4.43;;;11.90;99.90;;;;;;4924921;29;20103;-73
2022/11/08 09:50:51;;;;;;;7.57;4.40;;;12.00;99.90;;;;;;4924505;29;20282;-73
2022/11/08 09:53:37;;;;;;;8.50;4.20;;;12.20;99.90;;;;;;4924654;29;20111;-74
2022/11/08 09:56:24;;;;;;;9.02;4.05;;;12.50;99.90;;;;;;4925025;29;20072;-74
2022/11/08 09:59:01;;;;;;;9.48;4.10;;;12.70;99.90;;;;;;4908409;29;20225;-73
2022/11/08 10:01:33;;;;;;;8.23;3.50;;;13.10;99.90;;;;;;4924799;29;20498;-75
2022/11/08 10:04:07;;;;;;;7.00;3.83;;;13.50;99.90;;;;;;4924120;29;20336;-72
2022/11/08 10:06:44;;;;;;;6.32;3.92;;;13.80;99.90;;;;;;4924388;29;20056;-74
2022/11/08 10:09:45;;;;;;;9.93;4.37;;;13.70;99.90;;;;;;4924271;29;20032;-72
2022/11/08 10:12:31;;;;;;;9.95;4.60;;;13.70;99.90;;;;;;4924534;29;20456;-72
2022/11/08 10:15:05;;;;;;;9.57;4.85;;;13.70;99.90;;;;;;4924314;29;20040;-74
2022/11/08 10:17:52;;;;;;;8.13;4.22;;;13.70;99.90;;;;;;4908570;29;20036;-74
2022/11/08 10:20:34;;;;;;;10.20;4.50;;;13.70;99.90;;;;;;5003446;28;20046;-73
2022/11/08 10:23:20;;;;;;;10.82;4.32;;;13.80;99.90;;;;;;5002408;28;20037;-74
2022/11/08 10:26:17;;;;;;;9.02;4.72;;;13.90;99.90;;;;;;5003497;28;20051;-72
2022/11/08 10:28:48;;;;;;;9.00;4.50;;;14.00;99.90;;;;;;5001942;28;20053;-74
2022/11/08 10:31:16;;;;;;;7.20;4.10;;;13.90;99.90;;;;;;5003308;28;20474;-73
2022/11/08 10:33:50;;;;;;;8.50;4.33;;;14.00;99.90;;;;;;5002631;28;20046;-73
2022/11/08 10:36:39;;;;;;;12.15;5.07;;;14.00;99.90;;;;;;5003220;28;20525;-77
2022/11/08 10:39:08;;;;;;;8.77;4.57;;;14.00;99.90;;;;;;5003273;28;20098;-73
2022/11/08 10:42:03;;;;;;;8.20;4.65;;;13.90;99.90;;;;;;4999489;28;20027;-75
2022/11/08 10:44:28;;;;;;;9.32;4.82;;;13.90;99.90;;;;;;4999088;28;20205;-75
2022/11/08 10:47:11;;;;;;;11.88;4.88;;;14.00;99.90;;;;;;5001750;28;20022;-74
2022/11/08 10:49:42;;;;;;;12.20;4.85;;;14.10;99.90;;;;;;5003028;28;20052;-73
2022/11/08 10:52:11;;;;;;;9.80;4.55;;;14.30;99.90;;;;;;5002894;28;20030;-75
2022/11/08 10:54:46;;;;;;;11.32;4.60;;;14.50;99.90;;;;;;5002245;28;20358;-74
2022/11/08 10:57:35;;;;;;;11.60;4.13;;;14.70;99.90;;;;;;5003205;28;20034;-73
2022/11/08 11:00:22;;;;;;;8.05;4.70;;;15.00;99.90;;;;;;4990928;28;20232;-73
2022/11/08 11:02:52;;;;;;;13.07;4.68;;;15.20;99.90;;;;;;4988638;28;20046;-74
2022/11/08 11:05:34;;;;;;;11.25;4.40;;;15.40;99.90;;;;;;5002461;28;20049;-74
2022/11/08 11:08:03;;;;;;;8.95;4.45;;;15.50;99.90;;;;;;5002321;28;20027;-73
2022/11/08 11:10:46;;;;;;;8.32;3.90;;;15.80;99.90;;;;;;5002716;28;20042;-76
2022/11/08 11:13:25;;;;;;;8.43;3.83;;;15.90;99.90;;;;;;5001425;28;20049;-74
2022/11/08 11:16:02;;;;;;;12.10;4.97;;;16.00;99.90;;;;;;4996109;28;20061;-75
2022/11/08 11:18:36;;;;;;;9.35;4.15;;;16.20;99.90;;;;;;5002562;28;20038;-74
2022/11/08 11:21:05;;;;;;;9.27;3.30;;;16.30;99.50;;;;;;5002449;28;20033;-77
2022/11/08 11:23:36;;;;;;;6.22;3.33;;;16.20;99.60;;;;;;5002776;28;20037;-74
2022/11/08 11:26:03;;;;;;;6.80;2.67;;;16.10;99.70;;;;;;5002236;28;20040;-74
2022/11/08 11:29:03;;;;;;;5.38;2.78;;;16.10;99.80;;;;;;5001818;28;20366;-74
2022/11/08 11:31:34;;;;;;;6.25;3.05;;;16.20;99.90;;;;;;5002743;28;20292;-76
2022/11/08 11:34:44;;;;;;;7.97;3.03;;;16.40;99.90;;;;;;4968527;28;20034;-76
2022/11/08 11:37:09;;;;;;;6.70;2.20;;;16.50;99.50;;;;;;4982527;28;20423;-76
2022/11/08 11:40:06;;;;;;;4.75;2.00;;;16.80;99.10;;;;;;4981679;28;20169;-76
2022/11/08 11:42:34;;;;;;;6.78;2.15;;;16.90;98.50;;;;;;4992102;28;20067;-76
2022/11/08 11:45:28;;;;;;;4.35;1.80;;;17.60;97.90;;;;;;5001851;28;20026;-72
2022/11/08 11:48:03;;;;;;;4.03;1.60;;;19.80;95.00;;;;;;5001783;28;20088;-73
2022/11/08 11:50:38;;;;;;;3.40;1.40;;;22.20;90.50;;;;;;5002139;28;20472;-74
2022/11/08 11:53:13;;;;;;;3.72;1.70;;;24.70;82.40;;;;;;5000760;28;20062;-72
2022/11/08 11:56:12;;;;;;;5.00;1.77;;;26.10;76.30;;;;;;5001726;28;20273;-74
2022/11/08 11:58:59;;;;;;;5.85;1.60;;;27.20;71.90;;;;;;5001344;28;20304;-73
2022/11/08 12:01:37;;;;;;;4.50;1.30;;;26.90;69.20;;;;;;5002018;28;20042;-74
2022/11/08 12:04:03;;;;;;;;;;;25.70;69.30;;;;;;5002487;28;20038;-75
2022/11/08 12:06:41;;;;;;;5.93;2.50;;;25.20;72.80;;;;;;5000885;28;20261;-75
2022/11/08 12:09:22;;;;;;;6.10;2.83;;;25.70;72.20;;;;;;5001688;28;20460;-74
2022/11/08 12:11:58;;;;;;;5.90;2.78;;;27.00;70.40;;;;;;4982004;28;20049;-73
2022/11/08 12:14:45;;;;;;;8.45;3.08;;;27.50;68.00;;;;;;4982086;28;20090;-74
2022/11/08 12:17:31;;;;;;;5.45;2.30;;;28.50;66.30;;;;;;4982125;28;20038;-74
2022/11/08 12:20:21;;;;;;;8.02;2.72;;;28.60;65.10;;;;;;4980775;28;20042;-75
2022/11/08 12:23:12;;;;;;;7.13;2.65;;;29.00;63.70;;;;;;4980710;28;20034;-75
2022/11/08 12:26:00;;;;;;;9.63;3.33;;;29.50;63.00;;;;;;4986834;28;20223;-75
2022/11/08 12:28:49;;;;;;;6.55;2.70;;;29.50;62.70;;;;;;4977247;28;20107;-76
2022/11/08 12:31:27;;;;;;;6.80;2.80;;;28.80;62.70;;;;;;4992032;28;20120;-75
2022/11/08 12:33:52;;;;;;;6.47;2.80;;;27.70;63.70;;;;;;5001158;28;20058;-75
2022/11/08 12:36:33;;;;;;;6.10;3.03;;;26.20;66.00;;;;;;4998083;28;20093;-75
2022/11/08 12:39:25;;;;;;;9.20;2.83;;;26.00;67.20;;;;;;5000690;28;20072;-74
2022/11/08 12:42:24;;;;;;;4.75;2.30;;;26.70;66.50;;;;;;4987041;28;20033;-73
2022/11/08 12:45:05;;;;;;;5.30;2.20;;;27.00;65.60;;;;;;4980186;28;20026;-74
2022/11/08 12:47:40;;;;;;;4.20;2.22;;;27.70;64.50;;;;;;5001049;28;20026;-74
2022/11/08 12:50:46;;;;;;;6.13;2.70;;;27.90;63.90;;;;;;5000606;28;20042;-74
2022/11/08 12:53:33;;;;;;;5.10;2.63;;;28.00;63.70;;;;;;4997209;28;20089;-73
2022/11/08 12:56:02;;;;;;;5.25;2.45;;;28.00;63.60;;;;;;4983646;28;20027;-73
2022/11/08 12:58:35;;;;;;;2.65;1.00;;;28.10;63.50;;;;;;4981496;28;20054;-74
2022/11/08 13:01:11;;;;;;;2.70;0.60;;;27.60;60.10;;;;;;4972926;28;20335;-72
2022/11/08 13:04:17;;;;;;;3.30;1.65;;;27.80;57.60;;;;;;4981133;28;20239;-75
2022/11/08 13:06:51;;;;;;;3.33;1.45;;;27.40;60.00;;;;;;4980848;28;20209;-75
2022/11/08 13:09:43;;;;;;;2.60;1.10;;;26.70;59.30;;;;;;5001077;28;20034;-74
2022/11/08 13:12:29;;;;;;;5.40;2.30;;;25.40;59.90;;;;;;5004258;28;20386;-75
2022/11/08 13:15:00;;;;;;;3.55;0.80;;;24.00;63.30;;;;;;4987277;28;20030;-74
2022/11/08 13:17:30;;;;;;;2.67;0.90;;;23.30;64.20;;;;;;5004798;28;20045;-73
2022/11/08 13:20:03;;;;;;;2.15;0.80;;;23.10;64.60;;;;;;5004282;28;20030;-75
2022/11/08 13:22:29;;;;;;;3.85;0.90;;;23.00;65.50;;;;;;5004870;28;20034;-75
2022/11/08 13:25:20;;;;;;;6.93;1.90;;;23.00;66.10;;;;;;5004214;28;20060;-75
2022/11/08 13:27:47;;;;;;;5.20;2.20;;;22.50;70.70;;;;;;4973868;28;20069;-76
2022/11/08 13:30:15;;;;;;;4.78;2.08;;;21.70;73.20;;;;;;5004408;28;20057;-71
2022/11/08 13:33:14;;;;;;;5.60;2.22;;;21.20;75.40;;;;;;5002983;28;20046;-72
2022/11/08 13:36:04;;;;;;;7.38;2.70;;;20.50;78.40;;;;;;4989165;28;20046;-73
2022/11/08 13:39:03;;;;;;;7.03;2.47;;;19.70;80.50;;;;;;5004599;28;20034;-75
2022/11/08 13:41:28;;;;;;;6.32;2.10;;;19.30;82.30;;;;;;5004384;28;20041;-74
2022/11/08 13:43:55;;;;;;;4.65;2.25;;;18.90;84.10;;;;;;5003855;28;20045;-74
2022/11/08 13:46:29;;;;;;;7.65;2.65;;;18.70;85.10;;;;;;5004092;28;20018;-76
2022/11/08 13:49:02;;;;;;;4.13;2.45;;;18.70;85.30;;;;;;5003840;28;20041;-74
2022/11/08 13:51:38;;;;;;;6.10;2.72;;;18.70;85.90;;;;;;5004357;28;20263;-73
2022/11/08 13:54:22;;;;;;;5.80;2.70;;;18.80;86.80;;;;;;5003637;28;20481;-74
2022/11/08 13:56:59;;;;;;;9.10;3.90;;;18.60;87.30;;;;;;5003637;28;20122;-75
2022/11/08 13:59:31;;;;;;;7.30;4.00;;;18.50;87.80;;;;;;5004182;28;20053;-73
2022/11/08 14:02:02;;;;;;;10.15;3.45;;;18.50;88.50;;;;;;5003304;28;20030;-75
2022/11/08 14:04:39;;;;;;;10.13;3.85;;;18.40;89.10;;;;;;5003432;28;20080;-74
2022/11/08 14:07:16;;;;;;;12.70;4.13;;;18.10;90.10;;;;;;5003895;28;20449;-72
2022/11/08 14:10:14;;;;;;;11.45;4.68;;;17.90;90.30;;;;;;5003977;28;20030;-74
2022/11/08 14:12:56;;;;;;;6.93;3.60;;;17.70;90.70;;;;;;4973232;28;20050;-74
2022/11/08 14:15:32;;;;;;;6.97;2.92;;;17.50;91.30;;;;;;5003500;28;20366;-73
2022/11/08 14:18:03;;;;;;;5.43;2.92;;;17.40;91.10;;;;;;5003661;28;20342;-75
2022/11/08 14:20:46;;;;;;;17.15;10.00;;;17.40;91.00;;;;;;5003878;28;20042;-75
2022/11/08 14:23:19;;;;;;;13.52;6.97;;;17.30;90.90;;;;;;4986043;28;20293;-75
2022/11/08 14:26:03;;;;;;;11.07;4.35;;;17.30;91.20;;;;;;5003569;28;20034;-74
2022/11/08 14:28:32;;;;;;;9.00;4.00;;;17.30;91.20;;;;;;5004013;28;20030;-74
2022/11/08 14:31:00;;;;;;;5.20;3.10;;;17.20;91.20;;;;;;5002693;28;20022;-74
2022/11/08 14:33:28;;;;;;;6.45;3.30;;;17.30;91.50;;;;;;5003618;28;20026;-74
2022/11/08 14:35:59;;;;;;;9.05;3.60;;;17.40;92.10;;;;;;5003334;28;20101;-74
2022/11/08 14:38:30;;;;;;;5.10;3.25;;;17.30;91.50;;;;;;5003784;28;20216;-74
2022/11/08 14:40:59;;;;;;;8.00;2.72;;;17.20;91.70;;;;;;5002914;28;20021;-74
2022/11/08 14:43:27;;;;;;;7.10;3.00;;;17.10;91.90;;;;;;5003516;28;20372;-73
2022/11/08 14:45:56;;;;;;;6.85;3.10;;;17.00;92.10;;;;;;5002629;28;20030;-72
2022/11/08 14:48:30;;;;;;;5.43;3.00;;;16.90;92.50;;;;;;5003009;28;20022;-75
2022/11/08 14:51:04;;;;;;;7.15;3.55;;;16.90;92.60;;;;;;5003046;28;20068;-75
2022/11/08 14:53:44;;;;;;;9.85;5.43;;;16.80;92.80;;;;;;5003143;28;20545;-75
2022/11/08 14:56:19;;;;;;;13.52;6.07;;;16.80;92.90;;;;;;5003040;28;20038;-75
2022/11/08 14:58:50;;;;;;;6.15;3.15;;;16.80;93.00;;;;;;4985410;28;20227;-75
2022/11/08 15:01:20;;;;;;;9.05;5.20;;;16.80;93.10;;;;;;4985480;28;20154;-76
2022/11/08 15:03:58;;;;;;;12.85;8.00;;;16.80;93.10;;;;;;5002729;28;20050;-74
2022/11/08 15:06:35;;;;;;;9.05;5.13;;;16.70;93.20;;;;;;5002998;28;20041;-75
2022/11/08 15:09:02;;;;;;;7.32;3.03;;;16.60;93.40;;;;;;5002268;28;20102;-77
2022/11/08 15:11:31;;;;;;;7.60;3.13;;;16.60;93.50;;;;;;5002660;28;20213;-76
2022/11/08 15:14:03;;;;;;;7.38;3.03;;;16.50;94.20;;;;;;5002017;28;20035;-76
2022/11/08 15:16:41;;;;;;;8.65;2.72;;;16.40;93.90;;;;;;5002725;28;20034;-73
2022/11/08 15:19:41;;;;;;;7.70;4.00;;;16.30;94.20;;;;;;5002331;28;20239;-76
2022/11/08 15:22:29;;;;;;;8.30;3.20;;;16.10;94.40;;;;;;4984318;28;20049;-74
2022/11/08 15:25:01;;;;;;;5.47;2.65;;;16.00;94.50;;;;;;5002217;28;20303;-75
2022/11/08 15:27:26;;;;;;;8.60;2.92;;;15.80;94.70;;;;;;5002394;28;20288;-74
2022/11/08 15:30:07;;;;;;;8.73;2.88;;;15.80;94.80;;;;;;5002378;28;20030;-74
2022/11/08 15:32:38;;;;;;;10.02;2.90;;;15.60;95.10;;;;;;5002427;28;20037;-72
2022/11/08 15:35:05;;;;;;;11.45;3.88;;;15.50;95.30;;;;;;5001540;28;20046;-73
2022/11/08 15:37:35;;;;;;;8.02;2.88;;;15.30;95.60;;;;;;5002118;28;20033;-74
2022/11/08 15:40:04;;;;;;;7.60;3.03;;;15.20;96.30;;;;;;5001714;28;20033;-74
2022/11/08 15:42:32;;;;;;;7.78;3.05;;;15.00;96.70;;;;;;5001942;28;20139;-73
2022/11/08 15:44:59;;;;;;;6.23;3.00;;;14.90;96.90;;;;;;5000256;28;20038;-74
2022/11/08 15:47:34;;;;;;;6.47;3.10;;;14.80;97.60;;;;;;5000991;28;20098;-74
2022/11/08 15:50:00;;;;;;;7.30;3.13;;;14.70;98.00;;;;;;5001047;28;20134;-74
2022/11/08 15:52:26;;;;;;;8.55;3.20;;;14.50;97.90;;;;;;5001513;28;20030;-73
2022/11/08 15:54:51;;;;;;;8.57;3.55;;;14.40;98.50;;;;;;5000745;28;20058;-72
2022/11/08 15:57:17;;;;;;;9.10;3.55;;;14.30;99.10;;;;;;5001246;28;20029;-74
2022/11/08 15:59:43;;;;;;;13.23;7.28;;;14.20;99.90;;;;;;4984436;28;20121;-73
2022/11/08 16:02:12;;;;;;;16.33;8.82;;;14.10;99.70;;;;;;5000583;28;20038;-73
2022/11/08 16:04:38;;;;;;;19.48;12.27;;;14.00;99.90;;;;;;4999398;28;20033;-77
2022/11/08 16:07:07;;;;;;;9.35;5.13;;;13.90;99.90;;;;;;4983774;28;20022;-78
2022/11/08 16:09:33;;;;;;;10.65;5.40;;;13.90;99.90;;;;;;5000238;28;20022;-77
2022/11/08 16:12:01;;;;;;;12.90;8.10;;;13.80;99.90;;;;;;4983052;28;20084;-73
2022/11/08 16:14:27;;;;;;;8.88;5.10;;;13.70;99.90;;;;;;5000216;28;20280;-76
2022/11/08 16:16:56;;;;;;;7.88;4.28;;;13.70;99.90;;;;;;4983517;28;20038;-80
2022/11/08 16:19:23;;;;;;;11.18;5.55;;;13.60;99.90;;;;;;4964845;28;20073;-76
2022/11/08 16:21:52;;;;;;;17.08;8.55;;;13.50;99.90;;;;;;4989625;28;20065;-79
2022/11/08 16:24:19;;;;;;;11.10;5.28;;;13.50;99.90;;;;;;5000047;28;20213;-76
2022/11/08 16:27:11;;;;;;;8.95;5.10;;;13.40;99.90;;;;;;5001940;28;20068;-79
2022/11/08 16:29:37;;;;;;;10.40;4.72;;;13.30;99.90;;;;;;4991410;28;20045;-78
2022/11/08 16:32:05;;;;;;;9.07;4.40;;;13.20;99.90;;;;;;4985280;28;20030;-79
2022/11/08 16:34:31;;;;;;;8.77;5.07;;;13.10;99.90;;;;;;5001876;28;20030;-76
2022/11/08 16:37:00;;;;;;;9.18;4.40;;;13.10;99.90;;;;;;5001155;28;20030;-78
2022/11/08 16:39:28;;;;;;;7.90;4.32;;;13.10;99.90;;;;;;4983342;28;20019;-76
2022/11/08 16:41:57;;;;;;;9.57;4.88;;;13.10;99.90;;;;;;4984356;28;20030;-79
2022/11/08 16:44:23;;;;;;;9.68;4.90;;;13.20;99.90;;;;;;4969262;28;20037;-72
2022/11/08 16:46:51;;;;;;;8.82;4.35;;;13.10;99.90;;;;;;5001740;28;20034;-74
2022/11/08 16:49:20;;;;;;;9.38;4.43;;;13.10;99.90;;;;;;5000643;28;20320;-72
2022/11/08 16:51:46;;;;;;;7.25;4.05;;;13.20;99.90;;;;;;5001565;28;20045;-72
2022/11/08 16:54:18;;;;;;;8.88;3.83;;;13.30;99.90;;;;;;5000946;28;20034;-72
2022/11/08 16:56:44;;;;;;;9.40;4.60;;;13.20;99.90;;;;;;5001165;28;20300;-72
2022/11/08 16:59:10;;;;;;;23.88;15.13;;;13.30;99.90;;;;;;5000425;28;20064;-71
2022/11/08 17:01:39;;;;;;;12.93;6.30;;;13.30;99.90;;;;;;5000117;28;20227;-74
2022/11/08 17:04:05;;;;;;;7.97;3.85;;;13.20;99.90;;;;;;5000568;28;20046;-77
2022/11/08 17:06:30;;;;;;;8.93;4.00;;;13.20;99.90;;;;;;5000698;28;20030;-75
2022/11/08 17:08:56;;;;;;;7.10;3.97;;;13.20;99.90;;;;;;4983284;28;20090;-75
2022/11/08 17:11:22;;;;;;;9.35;5.40;;;13.20;99.90;;;;;;5000527;28;20018;-74
2022/11/08 17:13:49;;;;;;;9.88;5.03;;;13.20;99.90;;;;;;5000800;28;20050;-76
2022/11/08 17:16:17;;;;;;;11.15;5.18;;;13.10;99.90;;;;;;5000472;28;20038;-75
2022/11/08 17:18:43;;;;;;;8.13;4.60;;;13.10;99.90;;;;;;4999748;28;20026;-75
2022/11/08 17:21:13;;;;;;;8.32;4.93;;;13.20;99.90;;;;;;4999175;28;20270;-75
2022/11/08 17:23:39;;;;;;;8.88;3.88;;;13.20;99.90;;;;;;4996956;28;20046;-76
2022/11/08 17:26:06;;;;;;;7.88;4.32;;;13.10;99.90;;;;;;4980731;28;20026;-77
2022/11/08 17:28:32;;;;;;;8.43;3.75;;;13.10;99.90;;;;;;4981499;28;20085;-75
2022/11/08 17:31:16;;;;;;;7.00;3.45;;;13.00;99.90;;;;;;4992281;28;20323;-76
2022/11/08 17:33:42;;;;;;;8.52;5.10;;;13.00;99.90;;;;;;5001071;28;20311;-76
2022/11/08 17:36:11;;;;;;;8.63;4.10;;;13.00;99.90;;;;;;5000230;28;20267;-75
2022/11/08 17:38:38;;;;;;;8.27;3.50;;;13.00;99.90;;;;;;4983373;28;20233;-77
2022/11/08 17:41:12;;;;;;;8.90;4.05;;;12.90;99.90;;;;;;5000006;28;20041;-76
2022/11/08 17:43:41;;;;;;;9.85;4.63;;;12.90;99.90;;;;;;5000788;28;20057;-76
2022/11/08 17:46:09;;;;;;;10.00;4.93;;;12.90;99.90;;;;;;5000075;28;20027;-75
2022/11/08 17:48:36;;;;;;;10.43;5.50;;;12.80;99.90;;;;;;4998121;28;20037;-73
2022/11/08 17:51:02;;;;;;;7.90;4.50;;;12.80;99.90;;;;;;4991450;28;20038;-73
2022/11/08 17:53:28;;;;;;;10.23;4.53;;;12.70;99.90;;;;;;4988723;28;20046;-74
2022/11/08 17:55:59;;;;;;;6.80;3.67;;;12.70;99.90;;;;;;4998795;28;20038;-74
2022/11/08 17:58:26;;;;;;;8.10;3.85;;;12.60;99.90;;;;;;5004458;28;20034;-73
2022/11/08 18:00:53;;;;;;;7.28;3.58;;;12.60;99.90;;;;;;4991580;28;20224;-74
2022/11/08 18:03:19;;;;;;;9.80;3.95;;;12.60;99.90;;;;;;4983787;28;20314;-72
2022/11/08 18:06:06;;;;;;;8.85;4.00;;;12.70;99.90;;;;;;4997518;28;20038;-73
2022/11/08 18:08:33;;;;;;;9.95;3.88;;;12.50;99.90;;;;;;5003856;28;20031;-73
2022/11/08 18:10:59;;;;;;;11.65;6.32;;;12.40;99.90;;;;;;5003899;28;20030;-73
2022/11/08 18:13:27;;;;;;;9.10;4.60;;;12.30;99.90;;;;;;4986684;28;20062;-72
2022/11/08 18:15:53;;;;;;;6.22;3.67;;;12.20;99.90;;;;;;5003989;28;20015;-72
2022/11/08 18:18:20;;;;;;;6.75;3.78;;;12.10;99.90;;;;;;5003789;28;20246;-72
2022/11/08 18:20:55;;;;;;;7.05;3.85;;;12.20;99.90;;;;;;5003833;28;20034;-73
2022/11/08 18:23:21;;;;;;;10.05;4.70;;;12.10;99.90;;;;;;4986219;28;20034;-72
2022/11/08 18:25:48;;;;;;;11.02;5.72;;;12.10;99.90;;;;;;5003967;28;20076;-74
2022/11/08 18:28:15;;;;;;;10.90;5.63;;;12.10;99.90;;;;;;5003475;28;20026;-73
2022/11/08 18:30:41;;;;;;;8.45;4.75;;;12.10;99.90;;;;;;4986328;28;20026;-73
2022/11/08 18:33:07;;;;;;;16.48;9.55;;;12.10;99.90;;;;;;5003156;28;20312;-72
2022/11/08 18:35:37;;;;;;;17.27;10.02;;;12.10;99.90;;;;;;5002387;28;20046;-74
2022/11/08 18:38:02;;;;;;;9.82;5.90;;;12.20;99.90;;;;;;5002003;28;20212;-73
2022/11/08 18:40:28;;;;;;;9.43;5.20;;;12.20;99.90;;;;;;5003481;28;20030;-72
2022/11/08 18:42:54;;;;;;;8.85;4.30;;;12.20;99.90;;;;;;5003590;28;20034;-73
2022/11/08 18:45:20;;;;;;;9.50;5.32;;;12.20;99.90;;;;;;5003070;28;20030;-73
2022/11/08 18:47:46;;;;;;;9.20;5.55;;;12.10;99.90;;;;;;5003279;28;20034;-73
2022/11/08 18:50:12;;;;;;;11.10;4.72;;;12.00;99.90;;;;;;5003140;28;20077;-74
2022/11/08 18:52:39;;;;;;;8.30;4.60;;;11.90;99.90;;;;;;5003029;28;20256;-75
2022/11/08 18:55:06;;;;;;;11.38;6.03;;;11.90;99.90;;;;;;5002555;28;20069;-72
2022/11/08 18:57:32;;;;;;;13.10;6.13;;;11.80;99.90;;;;;;5003388;28;20037;-73
2022/11/08 19:00:01;;;;;;;8.20;4.40;;;11.70;99.90;;;;;;5003366;28;20030;-72
2022/11/08 19:02:28;;;;;;;8.30;4.45;;;11.70;99.90;;;;;;5002081;28;20085;-73
2022/11/08 19:04:55;;;;;;;13.05;6.85;;;11.50;99.90;;;;;;5003217;28;20093;-74
2022/11/08 19:07:22;;;;;;;13.88;8.80;;;11.60;99.90;;;;;;5002212;28;20049;-72
2022/11/08 19:09:53;;;;;;;14.23;8.13;;;11.60;99.90;;;;;;5002297;28;20068;-72
2022/11/08 19:12:19;;;;;;;11.80;6.35;;;11.60;99.90;;;;;;5002156;28;20038;-73